Time;durP1;ratioP1;P1;durP2;ratioP2;P2;SDS_P1;SDS_P2;PMS_P1;PMS_P2;Temp;Humidity;BMP_temperature;BMP_pressure;BME280_temperature;BME280_humidity;BME280_pressure;Samples;Min_cycle;Max_cycle;Signal;HPM_P1;HPM_P2
2021/01/28 00:00:44;;;;;;;30.53;18.23;;;51.40;2124.80;;;;;;5062613;28;20033;-85
2021/01/28 00:03:19;;;;;;;25.13;16.37;;;51.40;2150.40;;;;;;5061470;28;20024;-85
2021/01/28 00:05:45;;;;;;;38.60;21.80;;;51.40;2150.40;;;;;;5056903;28;20033;-85
2021/01/28 00:08:13;;;;;;;24.70;14.13;;;51.50;2150.40;;;;;;5056793;28;20029;-84
2021/01/28 00:10:39;;;;;;;19.93;12.27;;;51.40;2150.40;;;;;;5057394;28;20047;-85
2021/01/28 00:13:07;;;;;;;20.23;13.90;;;51.20;2176.00;;;;;;5058020;28;20029;-84
2021/01/28 00:15:34;;;;;;;22.03;11.80;;;51.20;2201.60;;;;;;5057048;28;20029;-86
2021/01/28 00:18:01;;;;;;;16.10;11.47;;;51.20;2227.20;;;;;;5062919;28;20033;-84
2021/01/28 00:20:30;;;;;;;17.37;12.90;;;26.50;2201.60;;;;;;5060023;28;20088;-90
2021/01/28 00:22:56;;;;;;;20.60;13.43;;;26.40;2201.60;;;;;;5059914;28;20039;-86
2021/01/28 00:25:23;;;;;;;25.40;16.73;;;26.40;2201.60;;;;;;5058652;28;20091;-85
2021/01/28 00:27:49;;;;;;;16.93;12.13;;;26.50;2201.60;;;;;;5058708;28;20430;-84
2021/01/28 00:30:38;;;;;;;21.03;13.10;;;26.30;2201.60;;;;;;5059267;28;20028;-84
2021/01/28 00:33:04;;;;;;;22.90;15.87;;;26.30;2201.60;;;;;;5055896;28;20033;-87
2021/01/28 00:35:36;;;;;;;32.73;17.70;;;26.40;2201.60;;;;;;5058189;28;20029;-86
2021/01/28 00:40:52;;;;;;;32.13;17.27;;;26.50;2201.60;;;;;;5061292;28;20017;-84
2021/01/28 00:43:19;;;;;;;39.37;19.00;;;26.40;2201.60;;;;;;5062467;28;20047;-84
2021/01/28 00:45:45;;;;;;;26.53;14.83;;;26.50;2201.60;;;;;;5059000;28;20024;-83
2021/01/28 00:48:26;;;;;;;30.87;17.27;;;26.50;2201.60;;;;;;5058782;28;20021;-83
2021/01/28 00:51:03;;;;;;;26.37;17.53;;;26.50;2201.60;;;;;;5058634;28;20055;-84
2021/01/28 00:53:29;;;;;;;23.63;14.27;;;26.50;2201.60;;;;;;5058102;28;20028;-83
2021/01/28 00:55:55;;;;;;;25.20;16.07;;;26.50;2201.60;;;;;;5056008;28;20045;-83
2021/01/28 00:58:24;;;;;;;27.10;16.27;;;26.50;2201.60;;;;;;5056021;28;20032;-84
2021/01/28 01:00:50;;;;;;;23.50;13.77;;;26.50;2201.60;;;;;;5055697;28;20032;-83
2021/01/28 01:03:19;;;;;;;23.47;15.03;;;26.50;2201.60;;;;;;5055694;28;20035;-83
2021/01/28 01:05:45;;;;;;;23.00;14.37;;;26.50;2201.60;;;;;;5054822;28;20032;-84
2021/01/28 01:08:17;;;;;;;33.03;16.97;;;26.50;2201.60;;;;;;5055588;28;20474;-83
2021/01/28 01:10:55;;;;;;;24.83;15.37;;;51.20;2227.20;;;;;;5056622;28;20028;-87
2021/01/28 01:13:24;;;;;;;26.50;16.37;;;51.20;2227.20;;;;;;5055607;28;20048;-83
2021/01/28 01:15:49;;;;;;;28.33;16.50;;;51.30;2227.20;;;;;;5055534;28;20025;-84
2021/01/28 01:18:18;;;;;;;23.83;13.83;;;51.20;2201.60;;;;;;5055381;28;20037;-83
2021/01/28 01:20:45;;;;;;;25.40;15.67;;;51.30;2201.60;;;;;;5055586;28;20021;-84
2021/01/28 01:23:11;;;;;;;30.20;15.37;;;51.30;2201.60;;;;;;5055399;28;20021;-85
2021/01/28 01:25:37;;;;;;;22.07;12.87;;;51.30;2201.60;;;;;;5055074;28;20090;-82
2021/01/28 01:28:03;;;;;;;18.10;11.87;;;51.30;2201.60;;;;;;5055357;28;20123;-84
2021/01/28 01:30:29;;;;;;;25.03;13.50;;;51.30;2176.00;;;;;;5055436;28;20021;-83
2021/01/28 01:32:56;;;;;;;19.60;10.67;;;51.30;2176.00;;;;;;5055513;28;20120;-82
2021/01/28 01:35:24;;;;;;;21.67;12.33;;;51.30;2176.00;;;;;;5056181;28;20110;-83
2021/01/28 01:37:54;;;;;;;21.30;14.37;;;51.30;2150.40;;;;;;5055111;28;20043;-83
2021/01/28 01:40:32;;;;;;;17.27;9.33;;;51.30;2176.00;;;;;;5055470;28;20097;-83
2021/01/28 01:42:58;;;;;;;20.00;11.50;;;51.30;2201.60;;;;;;5054975;28;20033;-83
2021/01/28 01:45:47;;;;;;;16.17;10.10;;;51.30;2176.00;;;;;;5055455;28;20051;-83
2021/01/28 01:48:24;;;;;;;13.47;9.00;;;51.30;2176.00;;;;;;5054723;28;20131;-83
2021/01/28 01:51:15;;;;;;;20.20;11.40;;;51.30;2176.00;;;;;;5055100;28;20029;-83
2021/01/28 01:53:47;;;;;;;19.77;11.00;;;51.40;2201.60;;;;;;5055686;28;20557;-83
2021/01/28 01:56:19;;;;;;;21.17;12.63;;;51.40;2227.20;;;;;;5055050;28;20044;-84
2021/01/28 01:59:03;;;;;;;25.60;14.97;;;51.50;2201.60;;;;;;5055073;28;20045;-84
2021/01/28 02:01:34;;;;;;;19.27;11.97;;;51.50;2176.00;;;;;;5055027;28;20475;-84
2021/01/28 02:04:01;;;;;;;17.30;12.57;;;51.50;2150.40;;;;;;5054542;28;20039;-84
2021/01/28 02:06:43;;;;;;;20.60;11.57;;;51.50;2124.80;;;;;;5054648;28;20124;-84
2021/01/28 02:09:10;;;;;;;19.80;13.03;;;51.50;2124.80;;;;;;5054701;28;20025;-84
2021/01/28 02:11:37;;;;;;;16.03;10.73;;;51.50;2124.80;;;;;;5054440;28;20422;-83
2021/01/28 02:14:06;;;;;;;20.10;11.80;;;51.50;2124.80;;;;;;5054531;28;20053;-84
2021/01/28 02:16:35;;;;;;;16.37;10.37;;;51.30;2176.00;;;;;;5053395;28;20506;-83
2021/01/28 02:19:03;;;;;;;13.23;8.63;;;51.30;2176.00;;;;;;5056001;28;20457;-84
2021/01/28 02:21:34;;;;;;;22.77;11.20;;;51.30;2176.00;;;;;;5054363;28;20021;-84
2021/01/28 02:24:16;;;;;;;20.70;12.10;;;51.30;2176.00;;;;;;5054386;28;20033;-84
2021/01/28 02:26:44;;;;;;;11.38;8.43;;;51.30;2176.00;;;;;;5054299;28;20053;-85
2021/01/28 02:29:11;;;;;;;21.17;12.63;;;51.20;2176.00;;;;;;5053987;28;20390;-84
2021/01/28 02:31:40;;;;;;;20.57;12.30;;;51.20;2227.20;;;;;;5053994;28;20021;-85
2021/01/28 02:34:07;;;;;;;21.27;12.73;;;51.20;2201.60;;;;;;5054034;28;20027;-85
2021/01/28 02:36:45;;;;;;;20.07;12.37;;;51.20;2227.20;;;;;;5053960;28;20025;-84
2021/01/28 02:39:14;;;;;;;30.70;15.80;;;51.20;2201.60;;;;;;5054507;28;20021;-85
2021/01/28 02:41:42;;;;;;;28.40;18.00;;;51.30;2201.60;;;;;;5053861;28;20095;-83
2021/01/28 02:44:08;;;;;;;37.10;21.47;;;51.20;2201.60;;;;;;5054040;28;20048;-85
2021/01/28 02:46:35;;;;;;;39.77;21.13;;;51.30;2201.60;;;;;;5054141;28;20032;-84
2021/01/28 02:49:00;;;;;;;41.53;24.23;;;51.20;2201.60;;;;;;5053655;28;20017;-85
2021/01/28 02:51:26;;;;;;;27.07;18.37;;;51.20;2201.60;;;;;;5054711;28;20035;-93
2021/01/28 02:53:54;;;;;;;42.67;21.13;;;51.20;2201.60;;;;;;5053563;28;20055;-87
2021/01/28 02:56:21;;;;;;;31.47;20.27;;;26.40;2176.00;;;;;;5054207;28;20029;-85
2021/01/28 02:58:47;;;;;;;25.13;15.23;;;51.20;2201.60;;;;;;5054413;28;20040;-87
2021/01/28 03:01:14;;;;;;;23.83;14.17;;;51.20;2201.60;;;;;;5053743;28;20017;-84
2021/01/28 03:03:39;;;;;;;19.10;12.67;;;51.20;2201.60;;;;;;5053491;28;20033;-85
2021/01/28 03:06:07;;;;;;;16.90;11.70;;;51.20;2176.00;;;;;;5053907;28;20028;-84
2021/01/28 03:08:33;;;;;;;18.87;12.27;;;51.20;2176.00;;;;;;5053914;28;20116;-84
2021/01/28 03:10:59;;;;;;;18.23;11.50;;;51.20;2201.60;;;;;;5053521;28;20501;-81
2021/01/28 03:13:25;;;;;;;30.13;17.47;;;51.20;2176.00;;;;;;5053824;28;20021;-88
2021/01/28 03:15:51;;;;;;;30.90;17.40;;;51.20;2201.60;;;;;;5053380;28;20474;-85
2021/01/28 03:18:17;;;;;;;18.73;12.63;;;51.20;2201.60;;;;;;5053609;28;20044;-83
2021/01/28 03:20:43;;;;;;;22.30;14.83;;;51.20;2176.00;;;;;;5053622;28;20086;-84
2021/01/28 03:23:09;;;;;;;23.70;15.57;;;51.20;2201.60;;;;;;5053423;28;20025;-85
2021/01/28 03:25:36;;;;;;;19.53;13.67;;;51.30;2201.60;;;;;;5053399;28;20056;-83
2021/01/28 03:28:03;;;;;;;17.23;10.80;;;51.30;2201.60;;;;;;5053949;28;20097;-86
2021/01/28 03:30:32;;;;;;;21.00;12.50;;;51.20;2176.00;;;;;;5054227;28;20078;-83
2021/01/28 03:32:59;;;;;;;29.77;16.80;;;51.20;2176.00;;;;;;5053576;28;20029;-83
2021/01/28 03:35:25;;;;;;;26.40;17.47;;;51.30;2201.60;;;;;;5053164;28;20017;-85
2021/01/28 03:37:51;;;;;;;26.63;15.60;;;51.30;2201.60;;;;;;5053114;28;20079;-84
2021/01/28 03:40:19;;;;;;;19.97;12.33;;;51.30;2201.60;;;;;;5053113;28;20024;-84
2021/01/28 03:42:45;;;;;;;17.93;11.77;;;51.30;2201.60;;;;;;5052830;28;20391;-86
2021/01/28 03:45:12;;;;;;;17.60;9.87;;;51.30;2227.20;;;;;;5053184;28;20021;-84
2021/01/28 03:47:38;;;;;;;16.90;9.23;;;51.20;2176.00;;;;;;5052800;28;20050;-87
2021/01/28 03:50:06;;;;;;;19.10;12.20;;;51.30;2176.00;;;;;;5052723;28;20048;-83
2021/01/28 03:52:32;;;;;;;30.73;18.87;;;51.20;2176.00;;;;;;5052894;28;20078;-84
2021/01/28 03:54:57;;;;;;;47.67;28.47;;;51.20;2176.00;;;;;;5053386;28;20037;-85
2021/01/28 03:57:23;;;;;;;19.97;12.70;;;51.20;2176.00;;;;;;5053086;28;20128;-84
2021/01/28 03:59:49;;;;;;;25.43;16.83;;;51.20;2176.00;;;;;;5052947;28;20035;-84
2021/01/28 04:02:14;;;;;;;18.87;11.33;;;51.20;2201.60;;;;;;5053068;28;20032;-84
2021/01/28 04:04:40;;;;;;;16.63;9.90;;;51.20;2201.60;;;;;;5052756;28;20032;-83
2021/01/28 04:07:06;;;;;;;15.30;9.50;;;51.20;2176.00;;;;;;5053878;28;20047;-85
2021/01/28 04:09:32;;;;;;;23.77;14.13;;;51.20;2176.00;;;;;;5052904;28;20055;-84
2021/01/28 04:11:58;;;;;;;19.53;12.53;;;51.20;2150.40;;;;;;5053140;28;20029;-84
2021/01/28 04:14:23;;;;;;;15.83;9.07;;;51.20;2150.40;;;;;;5052955;28;20111;-83
2021/01/28 04:16:49;;;;;;;17.70;11.53;;;51.30;2150.40;;;;;;5053037;28;20027;-85
2021/01/28 04:19:15;;;;;;;17.20;11.90;;;51.30;2150.40;;;;;;5052824;28;20065;-84
2021/01/28 04:21:41;;;;;;;16.67;9.93;;;51.30;2150.40;;;;;;5052584;28;20055;-84
2021/01/28 04:24:07;;;;;;;15.97;10.50;;;51.30;2124.80;;;;;;5052482;28;20037;-83
2021/01/28 04:26:34;;;;;;;19.27;12.07;;;51.30;2124.80;;;;;;5053335;28;20049;-85
2021/01/28 04:29:01;;;;;;;15.97;11.23;;;51.30;2124.80;;;;;;5052550;28;20483;-83
2021/01/28 04:31:27;;;;;;;25.93;14.87;;;51.30;2124.80;;;;;;5052487;28;20027;-82
2021/01/28 04:33:52;;;;;;;19.73;12.90;;;51.30;2124.80;;;;;;5052359;28;20029;-83
2021/01/28 04:36:18;;;;;;;22.13;11.50;;;51.30;2099.20;;;;;;5052078;28;20021;-82
2021/01/28 04:38:44;;;;;;;18.77;11.63;;;51.30;2099.20;;;;;;5052290;28;20032;-83
2021/01/28 04:41:18;;;;;;;11.40;7.90;;;51.30;2099.20;;;;;;5054933;28;20111;-83
2021/01/28 04:43:48;;;;;;;14.83;9.47;;;51.20;2073.60;;;;;;5056274;28;20029;-82
2021/01/28 04:46:28;;;;;;;11.00;7.73;;;51.30;2124.80;;;;;;5056171;28;20082;-82
2021/01/28 04:48:55;;;;;;;15.13;9.33;;;51.20;2099.20;;;;;;5057313;28;20364;-84
2021/01/28 04:51:24;;;;;;;14.97;9.73;;;51.20;2073.60;;;;;;5058300;28;20029;-83
2021/01/28 04:53:54;;;;;;;17.73;10.43;;;51.30;2099.20;;;;;;5056365;28;20151;-83
2021/01/28 04:56:26;;;;;;;12.37;8.73;;;51.30;2073.60;;;;;;5055696;28;20044;-83
2021/01/28 04:59:15;;;;;;;14.97;10.47;;;51.40;2073.60;;;;;;5055832;28;20118;-83
2021/01/28 05:01:40;;;;;;;13.70;9.37;;;51.40;2099.20;;;;;;5055122;28;20025;-81
2021/01/28 05:04:11;;;;;;;20.23;12.43;;;51.40;2099.20;;;;;;5055826;28;20070;-83
2021/01/28 05:06:37;;;;;;;33.47;18.73;;;51.40;2099.20;;;;;;5055450;28;20079;-82
2021/01/28 05:09:03;;;;;;;20.03;12.37;;;51.40;2099.20;;;;;;5055574;28;20029;-83
2021/01/28 05:11:33;;;;;;;16.50;10.43;;;51.30;2099.20;;;;;;5055632;28;20025;-84
2021/01/28 05:14:22;;;;;;;14.77;9.33;;;51.30;2073.60;;;;;;5056880;28;20033;-85
2021/01/28 05:16:53;;;;;;;20.80;13.07;;;51.30;2099.20;;;;;;5055440;28;20045;-84
2021/01/28 05:19:31;;;;;;;15.33;10.43;;;51.30;2099.20;;;;;;5055292;28;20060;-83
2021/01/28 05:22:24;;;;;;;19.60;11.77;;;51.20;2099.20;;;;;;5055373;28;20065;-83
2021/01/28 05:24:55;;;;;;;;;;;51.30;2099.20;;;;;;5056471;28;20068;-85
2021/01/28 05:27:23;;;;;;;36.97;23.20;;;51.30;2099.20;;;;;;5055346;28;19912;-83
2021/01/28 05:29:51;;;;;;;21.50;13.63;;;51.30;2099.20;;;;;;5055182;28;20036;-83
2021/01/28 05:32:38;;;;;;;21.77;14.23;;;51.30;2099.20;;;;;;5055421;28;20033;-84
2021/01/28 05:35:25;;;;;;;20.83;13.10;;;51.20;2124.80;;;;;;5054926;28;20111;-83
2021/01/28 05:38:19;;;;;;;25.43;14.77;;;51.30;2099.20;;;;;;5054864;28;20029;-82
2021/01/28 05:40:59;;;;;;;16.20;11.25;;;51.20;2099.20;;;;;;5055194;28;20021;-82
2021/01/28 05:43:45;;;;;;;16.60;9.50;;;51.30;2099.20;;;;;;5055003;28;20111;-83
2021/01/28 05:46:13;;;;;;;19.40;10.17;;;51.20;2073.60;;;;;;5055339;28;20059;-83
2021/01/28 05:48:38;;;;;;;23.00;12.90;;;51.20;2073.60;;;;;;5054688;28;20107;-83
2021/01/28 05:51:11;;;;;;;17.07;9.30;;;51.30;2048.00;;;;;;5053878;28;20079;-84
2021/01/28 05:53:37;;;;;;;16.60;10.48;;;51.30;2048.00;;;;;;5054553;28;20032;-83
2021/01/28 05:56:13;;;;;;;18.53;8.30;;;51.30;2073.60;;;;;;5053357;28;20041;-83
2021/01/28 05:58:53;;;;;;;20.50;11.23;;;51.40;2048.00;;;;;;5054399;28;20037;-83
2021/01/28 06:01:45;;;;;;;16.00;9.93;;;51.40;2048.00;;;;;;5054569;28;20021;-83
2021/01/28 06:04:15;;;;;;;19.23;11.82;;;51.30;2048.00;;;;;;5054805;28;20121;-82
2021/01/28 06:06:58;;;;;;;16.93;9.87;;;51.40;2073.60;;;;;;5054365;28;20067;-82
2021/01/28 06:09:50;;;;;;;22.42;15.05;;;51.40;2048.00;;;;;;5054982;28;20113;-83
2021/01/28 06:12:35;;;;;;;42.10;22.88;;;51.30;2073.60;;;;;;5054773;28;20070;-83
2021/01/28 06:15:06;;;;;;;23.23;15.00;;;51.40;2073.60;;;;;;5054371;28;20032;-82
2021/01/28 06:17:48;;;;;;;21.27;13.57;;;51.40;2048.00;;;;;;5054279;28;20463;-83
2021/01/28 06:20:26;;;;;;;24.63;13.83;;;51.40;2022.40;;;;;;5054061;28;20032;-85
2021/01/28 06:23:14;;;;;;;32.17;18.50;;;51.30;2022.40;;;;;;5053971;28;20274;-83
2021/01/28 06:25:52;;;;;;;18.47;10.40;;;51.40;2048.00;;;;;;5053809;28;20049;-83
2021/01/28 06:28:30;;;;;;;23.20;13.77;;;51.40;2022.40;;;;;;5054163;28;20483;-83
2021/01/28 06:31:02;;;;;;;21.73;13.53;;;51.50;2022.40;;;;;;5053963;28;20061;-84
2021/01/28 06:33:42;;;;;;;16.77;10.73;;;51.50;1996.80;;;;;;5054805;28;20107;-82
2021/01/28 06:36:33;;;;;;;20.60;12.30;;;51.60;1971.20;;;;;;5054264;28;20029;-83
2021/01/28 06:39:26;;;;;;;26.80;15.30;;;51.50;1971.20;;;;;;5054994;28;20033;-82
2021/01/28 06:42:06;;;;;;;27.67;15.50;;;51.50;1971.20;;;;;;5054704;28;20473;-83
2021/01/28 06:45:00;;;;;;;16.50;11.70;;;51.60;1971.20;;;;;;5054708;28;20091;-82
2021/01/28 06:47:37;;;;;;;32.33;18.23;;;51.60;1945.60;;;;;;5055196;28;20051;-83
2021/01/28 06:50:27;;;;;;;33.77;19.13;;;51.60;1945.60;;;;;;5054217;28;20385;-82
2021/01/28 06:53:06;;;;;;;22.60;14.47;;;51.60;1920.00;;;;;;5054783;28;20036;-82
2021/01/28 06:55:32;;;;;;;47.23;24.00;;;51.70;1894.40;;;;;;5049127;28;20182;-83
2021/01/28 06:58:34;;;;;;;49.60;23.63;;;51.70;1868.80;;;;;;5040147;28;20099;-81
2021/01/28 07:01:10;;;;;;;185.93;89.00;;;51.70;1894.40;;;;;;4958989;28;20042;-82
2021/01/28 07:03:44;;;;;;;277.60;100.87;;;51.70;1894.40;;;;;;4960672;28;20039;-82
2021/01/28 07:06:26;;;;;;;80.07;39.40;;;51.80;1894.40;;;;;;4959363;28;20165;-83
2021/01/28 07:09:33;;;;;;;109.33;49.60;;;51.80;1920.00;;;;;;4957892;28;20547;-86
2021/01/28 07:12:02;;;;;;;109.03;51.87;;;51.70;1894.40;;;;;;4934979;29;20478;-82
2021/01/28 07:14:29;;;;;;;29.07;17.13;;;51.70;1894.40;;;;;;4919462;29;20042;-85
2021/01/28 07:16:58;;;;;;;25.53;17.30;;;51.80;1920.00;;;;;;4919694;29;20176;-83
2021/01/28 07:19:58;;;;;;;25.23;15.03;;;51.80;1894.40;;;;;;4919278;29;20036;-83
2021/01/28 07:22:32;;;;;;;17.93;13.30;;;51.80;1920.00;;;;;;4845048;29;20033;-87
2021/01/28 07:25:31;;;;;;;27.00;15.60;;;51.80;1920.00;;;;;;4863808;29;20056;-87
2021/01/28 07:28:25;;;;;;;21.50;14.47;;;51.80;1894.40;;;;;;4848878;29;20040;-87
2021/01/28 07:31:06;;;;;;;25.23;14.37;;;51.80;1894.40;;;;;;4864502;29;20039;-86
2021/01/28 07:33:40;;;;;;;27.63;19.17;;;51.80;1868.80;;;;;;4862733;29;20037;-87
2021/01/28 07:36:12;;;;;;;44.67;26.03;;;51.90;1868.80;;;;;;4859922;29;20045;-86
2021/01/28 07:38:44;;;;;;;38.67;22.83;;;51.80;1843.20;;;;;;4901712;29;20057;-84
2021/01/28 07:41:10;;;;;;;42.95;25.58;;;51.90;1843.20;;;;;;4935890;29;20034;-83
2021/01/28 07:43:44;;;;;;;72.93;37.60;;;52.00;1843.20;;;;;;4973128;28;20026;-82
2021/01/28 07:46:28;;;;;;;31.43;19.30;;;52.00;1843.20;;;;;;4978800;28;20038;-81
2021/01/28 07:49:26;;;;;;;23.53;14.80;;;52.00;1817.60;;;;;;4969786;28;20022;-89
2021/01/28 07:52:00;;;;;;;40.67;25.13;;;52.00;1792.00;;;;;;4977277;28;20405;-82
2021/01/28 07:54:26;;;;;;;37.93;24.67;;;52.10;1817.60;;;;;;4999537;28;20138;-85
2021/01/28 07:57:00;;;;;;;75.37;48.47;;;52.10;1792.00;;;;;;4986647;28;20015;-90
2021/01/28 07:59:49;;;;;;;32.50;20.17;;;52.10;1817.60;;;;;;5028654;28;20234;-82
2021/01/28 08:02:17;;;;;;;108.60;54.23;;;51.90;1817.60;;;;;;5054235;28;20075;-87
2021/01/28 08:04:52;;;;;;;24.80;16.33;;;52.00;1817.60;;;;;;5053376;28;20025;-84
2021/01/28 08:07:30;;;;;;;69.47;39.73;;;52.00;1843.20;;;;;;5052245;28;20033;-82
2021/01/28 08:10:27;;;;;;;21.37;10.53;;;76.80;1792.00;;;;;;5055144;28;20025;-87
2021/01/28 08:12:57;;;;;;;18.83;11.20;;;77.10;1766.40;;;;;;4956779;28;20030;-84
2021/01/28 08:15:40;;;;;;;21.10;13.27;;;77.20;1766.40;;;;;;4959574;28;20509;-83
2021/01/28 08:18:12;;;;;;;25.87;16.83;;;77.20;1766.40;;;;;;4960602;28;20089;-83
2021/01/28 08:20:38;;;;;;;25.13;15.63;;;77.10;1792.00;;;;;;4958442;28;20094;-90
2021/01/28 08:23:06;;;;;;;48.47;33.27;;;77.00;1766.40;;;;;;4960070;28;20113;-85
2021/01/28 08:25:38;;;;;;;35.43;23.80;;;76.90;1792.00;;;;;;4975286;28;20138;-82
2021/01/28 08:28:12;;;;;;;22.03;14.40;;;76.90;1792.00;;;;;;4956178;28;20026;-85
2021/01/28 08:30:37;;;;;;;37.67;21.07;;;77.00;1766.40;;;;;;4956960;28;20401;-88
2021/01/28 08:33:04;;;;;;;37.60;20.30;;;77.20;1766.40;;;;;;4974341;28;20061;-84
2021/01/28 08:35:39;;;;;;;60.97;37.87;;;77.20;1766.40;;;;;;4977548;28;20081;-83
2021/01/28 08:38:19;;;;;;;74.73;48.27;;;77.20;1766.40;;;;;;4952149;29;20097;-85
2021/01/28 08:40:55;;;;;;;57.63;34.23;;;77.00;1792.00;;;;;;4975333;28;20037;-84
2021/01/28 08:43:21;;;;;;;37.87;22.60;;;76.90;1817.60;;;;;;4955899;28;20114;-82
2021/01/28 08:45:47;;;;;;;47.23;30.10;;;76.80;1843.20;;;;;;4956433;28;20130;-82
2021/01/28 08:48:23;;;;;;;25.30;14.93;;;77.20;1868.80;;;;;;4955342;28;20058;-84
2021/01/28 08:50:49;;;;;;;27.90;19.03;;;76.80;1843.20;;;;;;5042600;28;20094;-83
2021/01/28 08:53:20;;;;;;;21.70;12.93;;;52.10;1868.80;;;;;;5050587;28;20486;-82
2021/01/28 08:55:45;;;;;;;32.90;19.90;;;76.90;1817.60;;;;;;5033652;28;20120;-85
2021/01/28 08:58:34;;;;;;;29.50;18.77;;;76.90;1817.60;;;;;;5034980;28;20117;-87
2021/01/28 09:01:04;;;;;;;33.63;22.80;;;77.20;1817.60;;;;;;4957836;28;20031;-85
2021/01/28 09:03:33;;;;;;;23.57;17.23;;;76.90;1843.20;;;;;;4957100;28;20116;-85
2021/01/28 09:06:00;;;;;;;27.30;17.73;;;76.90;1817.60;;;;;;4976365;28;20031;-85
2021/01/28 09:08:34;;;;;;;35.83;19.33;;;76.80;1843.20;;;;;;4975656;28;20034;-89
2021/01/28 09:11:11;;;;;;;42.67;23.80;;;77.00;1843.20;;;;;;4987099;28;20023;-87
2021/01/28 09:13:37;;;;;;;30.03;20.17;;;76.90;1817.60;;;;;;4974904;28;20035;-87
2021/01/28 09:16:13;;;;;;;23.63;14.77;;;77.20;1817.60;;;;;;4991068;28;20465;-88
2021/01/28 09:18:42;;;;;;;28.30;16.60;;;77.50;1766.40;;;;;;4981121;28;20046;-88
2021/01/28 09:21:17;;;;;;;24.63;15.53;;;77.20;1792.00;;;;;;4976802;28;20030;-89
2021/01/28 09:24:16;;;;;;;29.33;16.27;;;77.20;1792.00;;;;;;4978940;28;20030;-87
2021/01/28 09:26:43;;;;;;;50.97;30.87;;;77.50;1766.40;;;;;;4983296;28;20138;-89
2021/01/28 09:29:22;;;;;;;28.70;18.30;;;77.50;1766.40;;;;;;4992941;28;20577;-90
2021/01/28 09:31:50;;;;;;;25.53;15.97;;;77.70;1740.80;;;;;;4980625;28;20046;-87
2021/01/28 09:34:23;;;;;;;23.40;15.07;;;77.50;1715.20;;;;;;4989523;28;20065;-91
2021/01/28 09:37:21;;;;;;;37.93;23.83;;;77.70;1715.20;;;;;;5008426;28;20034;-88
2021/01/28 09:39:59;;;;;;;20.87;12.40;;;77.70;1664.00;;;;;;4993463;28;20480;-94
2021/01/28 09:42:36;;;;;;;18.07;12.33;;;102.50;1664.00;;;;;;4994706;28;20153;-94
2021/01/28 09:45:24;;;;;;;39.97;26.10;;;102.50;1664.00;;;;;;5005409;28;20038;-92
2021/01/28 09:48:09;;;;;;;25.17;14.20;;;102.70;1689.60;;;;;;5004064;23;20085;-88
2021/01/28 09:50:35;;;;;;;22.37;12.80;;;102.50;1638.40;;;;;;4987452;28;20042;-87
2021/01/28 09:53:06;;;;;;;23.13;14.07;;;102.50;1664.00;;;;;;4978271;28;20040;-88
2021/01/28 09:55:33;;;;;;;23.93;15.60;;;102.50;1664.00;;;;;;4996570;28;20026;-89
2021/01/28 09:57:58;;;;;;;18.97;11.47;;;102.80;1638.40;;;;;;4996489;28;20053;-89
2021/01/28 10:00:33;;;;;;;17.83;10.47;;;102.80;1638.40;;;;;;5013345;28;20026;-88
2021/01/28 10:03:16;;;;;;;26.00;16.90;;;102.90;1612.80;;;;;;4996291;28;20041;-89
2021/01/28 10:05:42;;;;;;;22.20;14.15;;;103.10;1638.40;;;;;;5122174;23;20068;-87
2021/01/28 10:08:08;;;;;;;30.37;19.07;;;128.00;1638.40;;;;;;5047849;28;20111;-88
2021/01/28 10:10:38;;;;;;;34.47;21.67;;;103.30;1561.60;;;;;;5049316;28;20032;-90
2021/01/28 10:13:08;;;;;;;25.27;14.60;;;128.00;1612.80;;;;;;5053129;28;20025;-88
2021/01/28 10:15:34;;;;;;;33.63;20.90;;;128.00;1612.80;;;;;;5055228;28;20052;-87
2021/01/28 10:17:59;;;;;;;27.47;16.77;;;103.30;1587.20;;;;;;5054207;28;20052;-88
2021/01/28 10:20:26;;;;;;;40.70;23.70;;;103.00;1612.80;;;;;;5054305;28;20048;-87
2021/01/28 10:22:54;;;;;;;38.17;20.37;;;103.30;1612.80;;;;;;5054269;28;20120;-87
2021/01/28 10:25:22;;;;;;;35.47;20.80;;;128.20;1612.80;;;;;;5053722;28;20053;-89
2021/01/28 10:27:48;;;;;;;29.10;17.50;;;128.10;1612.80;;;;;;5053947;28;20029;-87
2021/01/28 10:30:16;;;;;;;27.70;17.57;;;128.20;1587.20;;;;;;5055835;28;20029;-87
2021/01/28 10:32:43;;;;;;;19.63;11.40;;;128.10;1561.60;;;;;;5054625;28;20032;-87
2021/01/28 10:35:10;;;;;;;36.83;23.27;;;128.20;1612.80;;;;;;5057408;28;20049;-88
2021/01/28 10:37:36;;;;;;;27.77;16.63;;;128.20;1587.20;;;;;;5069618;28;20100;-87
2021/01/28 10:40:05;;;;;;;26.93;17.13;;;128.10;1561.60;;;;;;5074334;28;20029;-88
2021/01/28 10:42:38;;;;;;;20.73;13.00;;;128.20;1561.60;;;;;;5075574;28;20044;-87
2021/01/28 10:45:21;;;;;;;20.87;13.77;;;128.60;1561.60;;;;;;5059544;28;20028;-88
2021/01/28 10:47:47;;;;;;;27.17;19.60;;;128.80;1536.00;;;;;;5053523;28;20069;-89
2021/01/28 10:50:15;;;;;;;16.47;12.07;;;128.90;1536.00;;;;;;5053898;28;20059;-86
2021/01/28 10:52:40;;;;;;;25.87;16.73;;;128.70;1484.80;;;;;;5053942;28;20044;-87
2021/01/28 10:55:08;;;;;;;35.83;21.27;;;153.60;1510.40;;;;;;5053004;28;20475;-86
2021/01/28 10:57:34;;;;;;;11.73;8.30;;;128.80;1510.40;;;;;;5052609;28;20037;-88
2021/01/28 11:00:00;;;;;;;27.13;15.70;;;128.40;1510.40;;;;;;5054150;28;20075;-86
2021/01/28 11:02:26;;;;;;;35.90;21.70;;;128.80;1510.40;;;;;;5053228;28;20029;-86
2021/01/28 11:04:52;;;;;;;13.33;8.13;;;128.90;1484.80;;;;;;5053733;28;20426;-88
2021/01/28 11:07:18;;;;;;;32.73;19.73;;;153.60;1484.80;;;;;;5053684;28;20091;-91
2021/01/28 11:09:43;;;;;;;33.97;19.93;;;153.80;1484.80;;;;;;5053684;28;20036;-88
2021/01/28 11:12:09;;;;;;;18.33;10.73;;;153.90;1433.60;;;;;;5054252;28;20071;-89
2021/01/28 11:15:02;;;;;;;24.63;15.27;;;153.90;1433.60;;;;;;5054983;28;20036;-94
2021/01/28 11:17:28;;;;;;;14.23;7.93;;;154.00;1408.00;;;;;;5035871;28;20037;-92
2021/01/28 11:19:54;;;;;;;19.93;11.47;;;154.30;1356.80;;;;;;5042110;28;20052;-91
2021/01/28 11:22:20;;;;;;;36.03;21.37;;;154.40;1408.00;;;;;;5053886;28;20146;-93
2021/01/28 11:24:47;;;;;;;22.73;13.67;;;154.00;1408.00;;;;;;5053377;28;20036;-93
2021/01/28 11:27:16;;;;;;;40.53;21.73;;;154.40;1382.40;;;;;;5054266;28;20028;-92
2021/01/28 11:29:41;;;;;;;24.20;15.37;;;154.30;1356.80;;;;;;5055453;28;20018;-94
2021/01/28 11:32:17;;;;;;;20.10;11.60;;;154.50;1382.40;;;;;;5055157;28;20036;-93
2021/01/28 11:35:01;;;;;;;13.87;8.97;;;179.30;1331.20;;;;;;5053963;28;20471;-93
2021/01/28 11:37:27;;;;;;;12.83;8.00;;;179.80;1331.20;;;;;;5053628;28;20036;-93
2021/01/28 11:40:15;;;;;;;11.67;7.03;;;180.00;1356.80;;;;;;5051926;28;20418;-92
2021/01/28 11:42:44;;;;;;;17.20;11.90;;;180.00;1280.00;;;;;;5047040;28;20028;-93
2021/01/28 11:45:14;;;;;;;18.73;11.47;;;204.80;1331.20;;;;;;5055451;28;20033;-92
2021/01/28 11:47:40;;;;;;;11.30;7.70;;;180.00;1305.60;;;;;;5055735;28;20120;-92
2021/01/28 11:50:13;;;;;;;9.33;6.33;;;204.80;1305.60;;;;;;5054117;28;20041;-91
2021/01/28 11:52:41;;;;;;;26.13;14.68;;;205.00;1254.40;;;;;;5046794;28;20029;-91
2021/01/28 11:55:14;;;;;;;13.00;8.83;;;204.80;1228.80;;;;;;5049213;28;20057;-91
2021/01/28 11:57:40;;;;;;;14.15;9.65;;;180.00;1228.80;;;;;;5039667;28;20037;-91
2021/01/28 12:00:16;;;;;;;15.50;9.57;;;204.90;1203.20;;;;;;5051411;28;20475;-90
2021/01/28 12:02:42;;;;;;;41.27;24.07;;;179.70;1280.00;;;;;;5049237;28;20117;-92
2021/01/28 12:05:18;;;;;;;26.23;13.50;;;205.10;1254.40;;;;;;5045870;28;20136;-93
2021/01/28 12:07:58;;;;;;;13.30;9.20;;;205.40;1203.20;;;;;;5045561;28;20049;-91
2021/01/28 12:10:29;;;;;;;9.37;5.03;;;205.60;1177.60;;;;;;5037267;28;20033;-91
2021/01/28 12:13:00;;;;;;;10.17;6.40;;;205.50;1203.20;;;;;;5037070;28;20033;-93
2021/01/28 12:15:41;;;;;;;13.93;8.37;;;205.20;1177.60;;;;;;5035017;28;20498;-95
2021/01/28 12:18:13;;;;;;;11.27;7.13;;;205.20;1177.60;;;;;;5032709;28;20046;-93
2021/01/28 12:20:59;;;;;;;18.37;11.63;;;205.20;1203.20;;;;;;5033222;28;20033;-94
2021/01/28 12:23:28;;;;;;;20.03;11.90;;;205.20;1228.80;;;;;;5034337;28;20044;-93
2021/01/28 12:26:00;;;;;;;9.43;5.40;;;205.20;1177.60;;;;;;5033475;28;20026;-91
2021/01/28 12:28:29;;;;;;;17.33;10.70;;;205.20;1152.00;;;;;;5035765;28;20037;-91
2021/01/28 12:31:07;;;;;;;13.53;9.37;;;205.40;1177.60;;;;;;5033697;28;20029;-90
2021/01/28 12:33:34;;;;;;;20.70;12.83;;;205.20;1152.00;;;;;;5054679;28;20073;-91
2021/01/28 12:36:25;;;;;;;28.87;13.40;;;204.80;1203.20;;;;;;5051879;28;20037;-93